Time;durP1;ratioP1;P1;durP2;ratioP2;P2;SDS_P1;SDS_P2;PMS_P1;PMS_P2;Temp;Humidity;BMP_temperature;BMP_pressure;BME280_temperature;BME280_humidity;BME280_pressure;Samples;Min_cycle;Max_cycle;Signal;HPM_P1;HPM_P2
2022/12/10 00:00:22;;;;;;;5.28;4.03;;;;;;;20.62;54.18;98684.09;20746020;28;20037;-83
2022/12/10 00:10:23;;;;;;;4.57;4.03;;;;;;;20.62;54.31;98684.91;20749786;28;20227;-83
2022/12/10 00:20:25;;;;;;;7.03;4.32;;;;;;;20.57;54.29;98697.69;20752824;28;20108;-82
2022/12/10 00:30:25;;;;;;;6.90;4.28;;;;;;;20.59;54.39;98714.16;20741473;28;20432;-82
2022/12/10 00:40:26;;;;;;;4.95;3.97;;;;;;;20.60;54.38;98720.22;20735384;28;20049;-82
2022/12/10 00:50:26;;;;;;;7.18;4.43;;;;;;;20.58;54.27;98730.91;20733516;28;20046;-83
2022/12/10 01:00:28;;;;;;;5.57;4.22;;;;;;;20.55;54.58;98736.47;20732435;28;20784;-82
2022/12/10 01:10:28;;;;;;;5.38;4.22;;;;;;;20.54;54.45;98734.81;20739289;28;20056;-82
2022/12/10 01:20:28;;;;;;;5.68;4.25;;;;;;;20.57;54.75;98746.84;20738498;28;20041;-83
2022/12/10 01:30:29;;;;;;;6.28;4.40;;;;;;;20.56;54.91;98751.28;20742337;28;20184;-83
2022/12/10 01:40:30;;;;;;;4.97;4.00;;;;;;;20.56;54.83;98755.72;20734367;28;20037;-83
2022/12/10 01:50:30;;;;;;;6.60;4.53;;;;;;;20.55;54.59;98747.00;20738429;28;20041;-83
2022/12/10 02:00:37;;;;;;;6.45;4.43;;;;;;;20.53;54.88;98750.75;20733039;28;20443;-84
2022/12/10 02:11:16;;;;;;;6.95;4.53;;;;;;;20.52;54.82;98772.75;20725103;28;20068;-83
2022/12/10 02:21:24;;;;;;;7.93;4.18;;;;;;;20.52;54.61;98778.03;20744915;28;20505;-81
2022/12/10 02:31:29;;;;;;;6.30;4.60;;;;;;;20.50;55.00;98775.56;20744565;28;20045;-82
2022/12/10 02:41:37;;;;;;;6.28;4.72;;;;;;;20.49;54.63;98779.16;20725058;28;20191;-83
2022/12/10 02:51:37;;;;;;;6.25;4.75;;;;;;;20.49;55.01;98768.63;20731507;28;20069;-82
2022/12/10 03:01:50;;;;;;;6.75;4.78;;;;;;;20.47;54.95;98766.16;20727395;28;20046;-83
2022/12/10 03:12:00;;;;;;;6.33;4.47;;;;;;;20.47;55.06;98771.44;20726502;28;20068;-83
2022/12/10 03:22:03;;;;;;;6.00;4.35;;;;;;;20.43;54.84;98791.13;20724142;28;20132;-83
2022/12/10 03:32:05;;;;;;;5.60;4.40;;;;;;;20.44;54.93;98815.59;20720108;28;20064;-83
2022/12/10 03:42:06;;;;;;;7.30;4.00;;;;;;;20.48;54.80;98809.06;20713799;28;20488;-76
2022/12/10 03:52:06;;;;;;;13.27;4.68;;;;;;;20.50;54.91;98828.13;20713454;28;20412;-82
2022/12/10 04:02:07;;;;;;;16.30;5.72;;;;;;;20.51;54.62;98824.53;20712389;28;20775;-78
2022/12/10 04:12:07;;;;;;;21.85;7.32;;;;;;;20.55;55.01;98839.03;20700117;28;20630;-81
2022/12/10 04:32:29;;;;;;;10.05;5.20;;;;;;;20.25;51.67;98854.22;20746503;28;20045;-78
2022/12/10 04:42:29;;;;;;;13.63;5.50;;;;;;;20.28;52.05;98853.09;20752386;28;20064;-78
2022/12/10 04:52:30;;;;;;;16.85;5.20;;;;;;;20.27;52.24;98841.75;20744587;28;20053;-78
2022/12/10 05:02:30;;;;;;;16.15;5.45;;;;;;;20.29;52.28;98850.31;20751473;28;20495;-78
2022/12/10 05:12:31;;;;;;;9.50;4.82;;;;;;;20.28;52.37;98851.28;20746309;28;20115;-79
2022/12/10 05:32:51;;;;;;;10.98;5.10;;;;;;;20.54;51.42;98881.25;20740374;28;20050;-79
2022/12/10 05:42:56;;;;;;;9.10;5.05;;;;;;;20.60;51.52;98868.34;20743711;28;20053;-78
2022/12/10 05:52:56;;;;;;;6.90;4.45;;;;;;;20.67;51.11;98897.47;20738915;28;20520;-78
2022/12/10 06:02:57;;;;;;;8.35;4.57;;;;;;;20.73;50.93;98880.31;20738698;28;20038;-78
2022/12/10 06:12:57;;;;;;;6.53;4.47;;;;;;;20.77;50.89;98908.75;20734066;28;20048;-79
2022/12/10 06:22:58;;;;;;;8.77;4.80;;;;;;;20.81;51.01;98917.16;20736940;28;20038;-78
2022/12/10 06:32:58;;;;;;;6.72;4.75;;;;;;;20.85;50.57;98892.22;20735473;28;20053;-79
2022/12/10 06:43:02;;;;;;;5.40;4.32;;;;;;;20.90;50.86;98920.72;20731603;28;20045;-78
2022/12/10 06:53:02;;;;;;;8.40;5.05;;;;;;;20.94;50.39;98917.59;20744012;28;20041;-79
2022/12/10 07:03:03;;;;;;;9.03;5.37;;;;;;;20.99;50.50;98914.50;20736873;28;20037;-79
2022/12/10 07:13:03;;;;;;;7.32;5.50;;;;;;;21.02;50.72;98924.75;20739194;28;21501;-79
2022/12/10 07:23:04;;;;;;;7.07;5.38;;;;;;;21.08;50.39;98931.19;20746866;28;20136;-79
2022/12/10 07:33:04;;;;;;;7.22;5.10;;;;;;;21.13;50.57;98907.03;20726192;28;20056;-79
2022/12/10 07:43:06;;;;;;;7.97;6.45;;;;;;;21.16;50.00;98897.03;20736006;28;20042;-80
2022/12/10 07:53:07;;;;;;;6.57;4.70;;;;;;;21.19;50.38;98902.00;20723492;28;20058;-79
2022/12/10 08:03:07;;;;;;;8.15;5.35;;;;;;;21.22;49.88;98929.81;20749892;28;20141;-79
2022/12/10 08:13:08;;;;;;;5.75;4.60;;;;;;;21.25;50.17;98921.59;20750000;28;20041;-79
2022/12/10 08:23:08;;;;;;;7.65;5.53;;;;;;;21.24;49.96;98912.88;20753016;28;20045;-81
2022/12/10 08:33:09;;;;;;;7.07;5.50;;;;;;;21.26;49.17;98905.66;20739651;28;20447;-79
2022/12/10 08:43:11;;;;;;;9.30;6.88;;;;;;;21.27;49.04;98899.41;20740298;28;20052;-79
2022/12/10 08:53:11;;;;;;;7.13;5.27;;;;;;;21.30;48.95;98923.78;20762270;28;20045;-79
2022/12/10 09:03:12;;;;;;;11.98;7.55;;;;;;;21.26;48.66;98918.81;20745206;28;20037;-79
2022/12/10 09:13:13;;;;;;;7.55;5.85;;;;;;;21.25;48.60;98932.97;20740263;28;20053;-79
2022/12/10 09:23:13;;;;;;;12.57;9.25;;;;;;;21.17;48.66;98942.63;20739821;28;20044;-79
2022/12/10 09:33:14;;;;;;;10.27;7.68;;;;;;;21.11;49.29;98918.53;20737522;28;20046;-79
2022/12/10 09:43:27;;;;;;;7.50;5.63;;;;;;;21.06;49.13;98917.38;20733462;28;20110;-79
2022/12/10 09:53:29;;;;;;;8.73;5.97;;;;;;;21.03;49.19;98897.47;20735685;28;20048;-78
2022/12/10 10:03:38;;;;;;;8.02;6.07;;;;;;;21.00;49.05;98879.34;20740876;28;25064;-78
2022/12/10 10:13:45;;;;;;;7.68;5.90;;;;;;;21.00;49.55;98868.81;20732969;28;20116;-79
2022/12/10 10:23:45;;;;;;;8.75;5.93;;;;;;;20.98;49.12;98867.31;20730323;28;20045;-79
2022/12/10 10:33:56;;;;;;;7.82;5.82;;;;;;;20.94;48.92;98867.59;20739562;28;20049;-79
2022/12/10 10:44:01;;;;;;;7.38;5.72;;;;;;;20.93;49.04;98865.13;20739953;28;20081;-79
2022/12/10 10:54:02;;;;;;;8.02;5.80;;;;;;;20.90;48.88;98874.16;20732462;28;20034;-79
2022/12/10 11:04:03;;;;;;;7.57;5.82;;;;;;;20.90;48.82;98873.34;20733007;28;20258;-79
2022/12/10 11:14:14;;;;;;;7.85;5.80;;;;;;;20.89;49.03;98854.09;20728738;28;20042;-79
2022/12/10 11:24:18;;;;;;;7.90;5.20;;;;;;;20.90;48.67;98844.41;20736430;28;20712;-79
2022/12/10 11:34:26;;;;;;;6.65;5.32;;;;;;;20.86;48.52;98829.91;20742630;28;20048;-79
2022/12/10 11:44:43;;;;;;;7.20;5.30;;;;;;;20.84;48.37;98814.28;20762805;28;20041;-79
2022/12/10 11:55:03;;;;;;;6.70;5.00;;;;;;;20.81;48.49;98790.09;20757659;28;21026;-79
2022/12/10 12:05:41;;;;;;;6.88;5.40;;;;;;;20.79;48.81;98774.47;20763739;28;20037;-79
2022/12/10 12:15:41;;;;;;;8.63;6.15;;;;;;;20.80;48.63;98768.22;20753634;28;20045;-81
2022/12/10 12:25:47;;;;;;;7.72;5.97;;;;;;;20.84;48.46;98764.28;20758742;28;20057;-79
2022/12/10 12:35:52;;;;;;;8.27;5.68;;;;;;;20.85;48.29;98757.22;20757612;28;20061;-79
2022/12/10 12:45:54;;;;;;;7.93;5.82;;;;;;;20.79;48.33;98754.22;20747094;28;20073;-79
2022/12/10 12:56:16;;;;;;;8.77;6.17;;;;;;;20.78;48.29;98765.72;20740413;28;20497;-79
2022/12/10 13:06:24;;;;;;;8.80;5.72;;;;;;;20.82;48.00;98768.88;20750340;28;20046;-78
2022/12/10 13:16:45;;;;;;;8.70;5.95;;;;;;;20.83;48.25;98786.31;20741649;28;20136;-79
2022/12/10 13:27:10;;;;;;;7.72;5.65;;;;;;;20.83;47.68;98785.50;20741182;28;20056;-79
2022/12/10 13:37:47;;;;;;;7.32;5.70;;;;;;;20.83;47.79;98772.34;20737428;28;20054;-79
2022/12/10 13:47:52;;;;;;;8.55;5.88;;;;;;;20.84;47.61;98774.00;20735009;28;20057;-79
2022/12/10 13:58:08;;;;;;;7.35;5.60;;;;;;;20.85;47.28;98765.94;20737608;28;20069;-79
2022/12/10 14:08:16;;;;;;;6.93;5.40;;;;;;;20.86;47.33;98753.59;20726593;28;20050;-79
2022/12/10 14:18:17;;;;;;;6.88;5.38;;;;;;;20.85;47.57;98741.44;20733131;28;20042;-78
2022/12/10 14:28:18;;;;;;;7.28;5.75;;;;;;;20.92;47.12;98758.25;20746833;28;20041;-78
2022/12/10 14:38:26;;;;;;;6.68;5.25;;;;;;;20.83;46.97;98752.13;20725735;28;20037;-78
2022/12/10 14:48:27;;;;;;;7.85;5.43;;;;;;;20.85;47.63;98760.69;20751651;28;20051;-78
2022/12/10 14:58:39;;;;;;;6.60;5.22;;;;;;;20.81;47.38;98759.34;20728023;28;20104;-78
2022/12/10 15:08:42;;;;;;;6.75;5.70;;;;;;;20.74;47.69;98746.00;20731418;28;20168;-78
2022/12/10 15:18:43;;;;;;;6.43;4.80;;;;;;;20.72;47.33;98734.78;20732626;28;20738;-78
2022/12/10 15:28:45;;;;;;;7.30;5.25;;;;;;;20.72;47.55;98723.47;20742400;28;20531;-77
2022/12/10 15:38:47;;;;;;;6.60;5.40;;;;;;;20.71;47.10;98721.78;20729997;28;20037;-78
2022/12/10 15:48:48;;;;;;;8.27;5.70;;;;;;;20.68;47.28;98707.13;20720849;28;20053;-78
2022/12/10 15:58:48;;;;;;;7.45;5.75;;;;;;;20.65;47.09;98710.06;20720461;28;20092;-78
2022/12/10 16:08:49;;;;;;;8.18;5.25;;;;;;;20.64;47.05;98703.16;20735241;28;20053;-78
2022/12/10 16:18:50;;;;;;;7.53;5.17;;;;;;;20.63;47.22;98689.19;20743076;28;20053;-78
2022/12/10 16:28:51;;;;;;;6.25;4.93;;;;;;;20.63;46.79;98681.28;20744915;28;20290;-78
2022/12/10 16:38:51;;;;;;;7.03;5.10;;;;;;;20.64;46.79;98671.59;20747756;28;20029;-78
2022/12/10 16:48:52;;;;;;;6.10;4.82;;;;;;;20.61;46.85;98658.78;20749716;28;20956;-78
2022/12/10 16:58:53;;;;;;;5.75;4.68;;;;;;;20.59;47.00;98653.69;20742893;28;20044;-78
2022/12/10 17:08:55;;;;;;;6.35;4.95;;;;;;;20.58;46.89;98630.16;20748896;28;20038;-77
2022/12/10 17:18:55;;;;;;;6.43;5.15;;;;;;;20.58;46.89;98617.84;20741704;28;20038;-78
2022/12/10 17:29:03;;;;;;;6.55;4.93;;;;;;;20.57;46.73;98607.50;20741036;28;20049;-78
2022/12/10 17:39:04;;;;;;;6.68;5.35;;;;;;;20.53;46.76;98591.19;20747429;28;20049;-78
2022/12/10 17:49:05;;;;;;;5.82;4.80;;;;;;;20.51;46.95;98582.63;20742915;28;20069;-78
2022/12/10 17:59:05;;;;;;;6.38;5.03;;;;;;;20.50;46.92;98567.84;20741336;28;20034;-78
2022/12/10 18:09:10;;;;;;;7.57;5.07;;;;;;;20.48;46.96;98559.28;20737322;28;20049;-78
2022/12/10 18:19:14;;;;;;;6.75;5.03;;;;;;;20.48;46.83;98548.75;20734286;28;20045;-78
2022/12/10 18:29:14;;;;;;;6.28;4.70;;;;;;;20.51;46.72;98543.19;20734698;28;20119;-78
2022/12/10 18:39:17;;;;;;;6.85;5.18;;;;;;;20.50;46.35;98538.09;20736527;28;20038;-78
2022/12/10 18:49:19;;;;;;;6.97;5.13;;;;;;;20.50;46.23;98524.97;20744252;28;20049;-78
2022/12/10 18:59:21;;;;;;;6.30;4.90;;;;;;;20.45;46.30;98499.97;20732342;28;20045;-78
2022/12/10 19:09:22;;;;;;;6.45;4.80;;;;;;;20.46;46.23;98506.88;20736614;28;20125;-78
2022/12/10 19:19:23;;;;;;;6.82;5.10;;;;;;;20.50;46.25;98488.16;20733260;28;20117;-78
2022/12/10 19:29:24;;;;;;;6.20;5.07;;;;;;;20.51;46.14;98476.63;20744062;28;20046;-78
2022/12/10 19:39:25;;;;;;;6.95;5.15;;;;;;;20.47;46.16;98458.56;20730276;28;20088;-77
2022/12/10 19:49:27;;;;;;;6.72;5.18;;;;;;;20.46;46.21;98454.28;20729607;28;20042;-77
2022/12/10 19:59:28;;;;;;;7.57;4.90;;;;;;;20.44;46.28;98448.34;20743657;28;20043;-78
2022/12/10 20:09:29;;;;;;;6.30;5.05;;;;;;;20.43;46.10;98438.84;20737835;28;20413;-78
2022/12/10 20:19:30;;;;;;;6.82;4.82;;;;;;;20.46;46.08;98433.25;20750598;28;20072;-78
2022/12/10 20:29:32;;;;;;;7.78;5.22;;;;;;;20.44;46.15;98427.31;20748192;28;21108;-78
2022/12/10 20:39:34;;;;;;;8.10;5.28;;;;;;;20.35;45.98;98407.28;20730138;28;20050;-76
2022/12/10 20:49:35;;;;;;;7.32;4.65;;;;;;;20.35;46.64;98409.91;20730276;28;20038;-82
2022/12/10 20:59:36;;;;;;;6.25;5.03;;;;;;;20.42;47.35;98389.88;20734093;28;20049;-81
2022/12/10 21:09:37;;;;;;;10.75;4.80;;;;;;;20.42;48.20;98382.00;20724644;28;20046;-80
2022/12/10 21:19:41;;;;;;;9.73;5.28;;;;;;;20.45;48.42;98380.84;20699614;28;20069;-81
2022/12/10 21:29:44;;;;;;;10.95;5.20;;;;;;;20.42;48.31;98379.38;20675734;28;20053;-80
2022/12/10 21:39:45;;;;;;;8.20;6.25;;;;;;;20.38;48.12;98369.34;20703281;28;20515;-78
2022/12/10 21:49:46;;;;;;;9.63;5.80;;;;;;;20.36;48.57;98363.41;20753320;28;20053;-79
2022/12/10 21:59:46;;;;;;;9.15;5.53;;;;;;;20.37;48.90;98347.47;20728277;28;20045;-78
2022/12/10 22:09:47;;;;;;;9.45;5.10;;;;;;;20.33;49.24;98350.59;20717141;28;20096;-79
2022/12/10 22:19:47;;;;;;;11.27;5.35;;;;;;;20.32;48.80;98349.78;20726770;28;20106;-79
2022/12/10 22:29:48;;;;;;;7.35;5.10;;;;;;;20.29;49.10;98331.72;20733152;28;20068;-79
2022/12/10 22:39:48;;;;;;;9.02;5.38;;;;;;;20.29;49.13;98329.91;20732124;28;20046;-79
2022/12/10 22:49:49;;;;;;;7.65;4.78;;;;;;;20.27;49.46;98317.91;20725609;28;20041;-79
2022/12/10 22:59:49;;;;;;;9.80;4.80;;;;;;;20.27;49.50;98300.31;20725577;28;20057;-79
2022/12/10 23:09:50;;;;;;;7.55;4.65;;;;;;;20.26;49.43;98269.78;20728208;28;20054;-78
2022/12/10 23:19:52;;;;;;;8.35;4.30;;;;;;;20.27;49.33;98244.31;20720026;28;20588;-79
2022/12/10 23:29:53;;;;;;;7.93;4.53;;;;;;;20.31;49.48;98229.84;20729301;28;20073;-79
2022/12/10 23:39:53;;;;;;;6.82;4.55;;;;;;;20.32;49.44;98223.63;20724762;28;20127;-79
2022/12/10 23:49:55;;;;;;;7.03;4.90;;;;;;;20.36;49.42;98198.66;20732736;28;20046;-79
2022/12/10 23:59:55;;;;;;;6.80;4.40;;;;;;;20.37;49.43;98192.38;20742668;28;20295;-79
